sensor_id;sensor_type;location;lat;lon;timestamp;pressure;altitude;pressure_sealevel;temperature
34023;BMP280;20673;48.980;8.138;2023-11-19T00:00:48;100085.33;;;10.05
34023;BMP280;20673;48.980;8.138;2023-11-19T00:03:14;100086.18;;;10.10
34023;BMP280;20673;48.980;8.138;2023-11-19T00:05:40;100089.29;;;10.13
34023;BMP280;20673;48.980;8.138;2023-11-19T00:08:07;100094.65;;;10.14
34023;BMP280;20673;48.980;8.138;2023-11-19T00:10:34;100090.68;;;10.14
34023;BMP280;20673;48.980;8.138;2023-11-19T00:13:00;100086.79;;;10.21
34023;BMP280;20673;48.980;8.138;2023-11-19T00:15:28;100077.56;;;10.17
34023;BMP280;20673;48.980;8.138;2023-11-19T00:17:54;100071.67;;;10.20
34023;BMP280;20673;48.980;8.138;2023-11-19T00:20:21;100075.29;;;10.24
34023;BMP280;20673;48.980;8.138;2023-11-19T00:22:49;100057.53;;;10.27
34023;BMP280;20673;48.980;8.138;2023-11-19T00:25:19;100061.33;;;10.29
34023;BMP280;20673;48.980;8.138;2023-11-19T00:27:47;100051.04;;;10.30
34023;BMP280;20673;48.980;8.138;2023-11-19T00:30:14;100056.64;;;10.32
34023;BMP280;20673;48.980;8.138;2023-11-19T00:32:41;100055.67;;;10.36
34023;BMP280;20673;48.980;8.138;2023-11-19T00:35:08;100050.40;;;10.37
34023;BMP280;20673;48.980;8.138;2023-11-19T00:37:36;100050.24;;;10.45
34023;BMP280;20673;48.980;8.138;2023-11-19T00:40:02;100040.89;;;10.44
34023;BMP280;20673;48.980;8.138;2023-11-19T00:42:31;100033.40;;;10.46
34023;BMP280;20673;48.980;8.138;2023-11-19T00:44:58;100032.45;;;10.47
34023;BMP280;20673;48.980;8.138;2023-11-19T00:47:24;100028.29;;;10.49
34023;BMP280;20673;48.980;8.138;2023-11-19T00:49:51;100037.53;;;10.50
34023;BMP280;20673;48.980;8.138;2023-11-19T00:52:17;100045.11;;;10.53
34023;BMP280;20673;48.980;8.138;2023-11-19T00:54:44;100030.79;;;10.57
34023;BMP280;20673;48.980;8.138;2023-11-19T00:57:10;100022.87;;;10.55
34023;BMP280;20673;48.980;8.138;2023-11-19T00:59:36;100014.21;;;10.56
34023;BMP280;20673;48.980;8.138;2023-11-19T01:02:03;100008.32;;;10.57
34023;BMP280;20673;48.980;8.138;2023-11-19T01:04:35;100012.53;;;10.61
34023;BMP280;20673;48.980;8.138;2023-11-19T01:07:03;100024.34;;;10.64
34023;BMP280;20673;48.980;8.138;2023-11-19T01:09:31;100019.55;;;10.66
34023;BMP280;20673;48.980;8.138;2023-11-19T01:12:01;100012.79;;;10.67
34023;BMP280;20673;48.980;8.138;2023-11-19T01:14:28;100019.47;;;10.65
34023;BMP280;20673;48.980;8.138;2023-11-19T01:16:54;100021.33;;;10.65
34023;BMP280;20673;48.980;8.138;2023-11-19T01:19:24;100022.87;;;10.69
34023;BMP280;20673;48.980;8.138;2023-11-19T01:21:51;100024.53;;;10.69
34023;BMP280;20673;48.980;8.138;2023-11-19T01:24:17;100021.17;;;10.69
34023;BMP280;20673;48.980;8.138;2023-11-19T01:26:44;100018.83;;;10.71
34023;BMP280;20673;48.980;8.138;2023-11-19T01:29:13;100029.93;;;10.76
34023;BMP280;20673;48.980;8.138;2023-11-19T01:31:41;100024.51;;;10.74
34023;BMP280;20673;48.980;8.138;2023-11-19T01:34:07;100033.54;;;10.75
34023;BMP280;20673;48.980;8.138;2023-11-19T01:36:34;100030.06;;;10.76
34023;BMP280;20673;48.980;8.138;2023-11-19T01:39:00;100034.11;;;10.77
34023;BMP280;20673;48.980;8.138;2023-11-19T01:41:27;100034.29;;;10.80
34023;BMP280;20673;48.980;8.138;2023-11-19T01:43:53;100037.94;;;10.78
34023;BMP280;20673;48.980;8.138;2023-11-19T01:46:20;100035.17;;;10.80
34023;BMP280;20673;48.980;8.138;2023-11-19T01:48:47;100029.62;;;10.81
34023;BMP280;20673;48.980;8.138;2023-11-19T01:51:14;100023.12;;;10.80
34023;BMP280;20673;48.980;8.138;2023-11-19T01:53:43;100019.75;;;10.79
34023;BMP280;20673;48.980;8.138;2023-11-19T01:56:14;100019.06;;;10.77
34023;BMP280;20673;48.980;8.138;2023-11-19T01:58:41;100017.28;;;10.78
34023;BMP280;20673;48.980;8.138;2023-11-19T02:01:09;100011.52;;;10.80
34023;BMP280;20673;48.980;8.138;2023-11-19T02:03:37;100005.25;;;10.80
34023;BMP280;20673;48.980;8.138;2023-11-19T02:06:05;100015.87;;;10.79
34023;BMP280;20673;48.980;8.138;2023-11-19T02:08:31;100019.14;;;10.81
34023;BMP280;20673;48.980;8.138;2023-11-19T02:10:57;100017.56;;;10.81
34023;BMP280;20673;48.980;8.138;2023-11-19T02:13:26;100011.83;;;10.84
34023;BMP280;20673;48.980;8.138;2023-11-19T02:15:54;100020.46;;;10.87
34023;BMP280;20673;48.980;8.138;2023-11-19T02:18:27;100018.61;;;10.86
34023;BMP280;20673;48.980;8.138;2023-11-19T02:20:55;100019.25;;;10.88
34023;BMP280;20673;48.980;8.138;2023-11-19T02:23:21;100017.58;;;10.87
34023;BMP280;20673;48.980;8.138;2023-11-19T02:26:14;100019.14;;;10.88
34023;BMP280;20673;48.980;8.138;2023-11-19T02:28:42;100012.99;;;10.88
34023;BMP280;20673;48.980;8.138;2023-11-19T02:31:09;100007.67;;;10.88
34023;BMP280;20673;48.980;8.138;2023-11-19T02:33:39;100013.14;;;10.91
34023;BMP280;20673;48.980;8.138;2023-11-19T02:36:07;100003.48;;;10.90
34023;BMP280;20673;48.980;8.138;2023-11-19T02:38:35;100010.04;;;10.93
34023;BMP280;20673;48.980;8.138;2023-11-19T02:41:06;100014.00;;;10.97
34023;BMP280;20673;48.980;8.138;2023-11-19T02:43:36;100005.74;;;10.99
34023;BMP280;20673;48.980;8.138;2023-11-19T02:46:04;100008.18;;;11.02
34023;BMP280;20673;48.980;8.138;2023-11-19T02:48:33;100000.54;;;10.99
34023;BMP280;20673;48.980;8.138;2023-11-19T02:51:02;99987.80;;;11.01
34023;BMP280;20673;48.980;8.138;2023-11-19T02:53:33;99979.92;;;11.03
34023;BMP280;20673;48.980;8.138;2023-11-19T02:55:59;99970.17;;;11.06
34023;BMP280;20673;48.980;8.138;2023-11-19T02:58:30;99975.40;;;11.05
34023;BMP280;20673;48.980;8.138;2023-11-19T03:00:56;99984.41;;;11.08
34023;BMP280;20673;48.980;8.138;2023-11-19T03:03:28;99974.98;;;11.08
34023;BMP280;20673;48.980;8.138;2023-11-19T03:05:57;99986.83;;;11.09
34023;BMP280;20673;48.980;8.138;2023-11-19T03:08:23;99988.72;;;11.15
34023;BMP280;20673;48.980;8.138;2023-11-19T03:10:49;99991.52;;;11.16
34023;BMP280;20673;48.980;8.138;2023-11-19T03:13:15;99979.43;;;11.18
34023;BMP280;20673;48.980;8.138;2023-11-19T03:15:43;99978.55;;;11.18
34023;BMP280;20673;48.980;8.138;2023-11-19T03:18:09;99963.14;;;11.24
34023;BMP280;20673;48.980;8.138;2023-11-19T03:20:35;99955.59;;;11.21
34023;BMP280;20673;48.980;8.138;2023-11-19T03:23:01;99942.74;;;11.21
34023;BMP280;20673;48.980;8.138;2023-11-19T03:25:28;99950.83;;;11.23
34023;BMP280;20673;48.980;8.138;2023-11-19T03:28:00;99950.25;;;11.25
34023;BMP280;20673;48.980;8.138;2023-11-19T03:30:28;99948.15;;;11.26
34023;BMP280;20673;48.980;8.138;2023-11-19T03:32:56;99952.35;;;11.31
34023;BMP280;20673;48.980;8.138;2023-11-19T03:35:23;99957.81;;;11.33
34023;BMP280;20673;48.980;8.138;2023-11-19T03:37:51;99960.80;;;11.33
34023;BMP280;20673;48.980;8.138;2023-11-19T03:40:18;99956.70;;;11.36
34023;BMP280;20673;48.980;8.138;2023-11-19T03:42:46;99963.33;;;11.39
34023;BMP280;20673;48.980;8.138;2023-11-19T03:45:13;99965.11;;;11.43
34023;BMP280;20673;48.980;8.138;2023-11-19T03:47:40;99974.67;;;11.43
34023;BMP280;20673;48.980;8.138;2023-11-19T03:50:07;99973.75;;;11.41
34023;BMP280;20673;48.980;8.138;2023-11-19T03:52:35;99969.94;;;11.44
34023;BMP280;20673;48.980;8.138;2023-11-19T03:55:01;99964.23;;;11.42
34023;BMP280;20673;48.980;8.138;2023-11-19T03:57:30;99976.79;;;11.48
34023;BMP280;20673;48.980;8.138;2023-11-19T03:59:56;99978.26;;;11.48
34023;BMP280;20673;48.980;8.138;2023-11-19T04:02:24;99971.37;;;11.51
34023;BMP280;20673;48.980;8.138;2023-11-19T04:04:52;99971.35;;;11.54
34023;BMP280;20673;48.980;8.138;2023-11-19T04:07:18;99969.91;;;11.56
34023;BMP280;20673;48.980;8.138;2023-11-19T04:09:44;99971.21;;;11.57
34023;BMP280;20673;48.980;8.138;2023-11-19T04:12:12;99969.65;;;11.60
34023;BMP280;20673;48.980;8.138;2023-11-19T04:14:38;99964.93;;;11.58
34023;BMP280;20673;48.980;8.138;2023-11-19T04:17:04;99973.23;;;11.56
34023;BMP280;20673;48.980;8.138;2023-11-19T04:19:30;99968.12;;;11.57
34023;BMP280;20673;48.980;8.138;2023-11-19T04:21:58;99970.20;;;11.55
34023;BMP280;20673;48.980;8.138;2023-11-19T04:24:24;99968.97;;;11.59
34023;BMP280;20673;48.980;8.138;2023-11-19T04:26:50;99962.83;;;11.61
34023;BMP280;20673;48.980;8.138;2023-11-19T04:29:18;99955.46;;;11.60
34023;BMP280;20673;48.980;8.138;2023-11-19T04:31:45;99956.50;;;11.55
34023;BMP280;20673;48.980;8.138;2023-11-19T04:34:12;99960.93;;;11.59
34023;BMP280;20673;48.980;8.138;2023-11-19T04:36:38;99966.22;;;11.59
34023;BMP280;20673;48.980;8.138;2023-11-19T04:39:05;99964.36;;;11.61
34023;BMP280;20673;48.980;8.138;2023-11-19T04:41:51;99960.33;;;11.60
34023;BMP280;20673;48.980;8.138;2023-11-19T04:44:20;99952.59;;;11.67
34023;BMP280;20673;48.980;8.138;2023-11-19T04:46:47;99944.19;;;11.69
34023;BMP280;20673;48.980;8.138;2023-11-19T04:49:13;99946.17;;;11.66
34023;BMP280;20673;48.980;8.138;2023-11-19T04:51:45;99948.24;;;11.71
34023;BMP280;20673;48.980;8.138;2023-11-19T04:54:14;99953.67;;;11.72
34023;BMP280;20673;48.980;8.138;2023-11-19T04:56:40;99951.18;;;11.73
34023;BMP280;20673;48.980;8.138;2023-11-19T04:59:08;99954.23;;;11.77
34023;BMP280;20673;48.980;8.138;2023-11-19T05:01:35;99941.01;;;11.79
34023;BMP280;20673;48.980;8.138;2023-11-19T05:04:03;99942.38;;;11.79
34023;BMP280;20673;48.980;8.138;2023-11-19T05:06:31;99944.94;;;11.82
34023;BMP280;20673;48.980;8.138;2023-11-19T05:08:59;99955.31;;;11.84
34023;BMP280;20673;48.980;8.138;2023-11-19T05:11:35;99954.39;;;11.89
34023;BMP280;20673;48.980;8.138;2023-11-19T05:14:05;99958.77;;;11.91
34023;BMP280;20673;48.980;8.138;2023-11-19T05:16:31;99961.20;;;11.87
34023;BMP280;20673;48.980;8.138;2023-11-19T05:18:58;99958.32;;;11.92
34023;BMP280;20673;48.980;8.138;2023-11-19T05:21:24;99954.75;;;11.95
34023;BMP280;20673;48.980;8.138;2023-11-19T05:23:50;99956.54;;;11.97
34023;BMP280;20673;48.980;8.138;2023-11-19T05:26:20;99958.68;;;12.00
34023;BMP280;20673;48.980;8.138;2023-11-19T05:28:47;99955.39;;;11.97
34023;BMP280;20673;48.980;8.138;2023-11-19T05:31:15;99953.87;;;12.03
34023;BMP280;20673;48.980;8.138;2023-11-19T05:33:41;99948.47;;;12.05
34023;BMP280;20673;48.980;8.138;2023-11-19T05:36:08;99953.44;;;12.07
34023;BMP280;20673;48.980;8.138;2023-11-19T05:38:35;99939.97;;;12.12
34023;BMP280;20673;48.980;8.138;2023-11-19T05:41:03;99942.97;;;12.12
34023;BMP280;20673;48.980;8.138;2023-11-19T05:43:31;99932.15;;;12.15
34023;BMP280;20673;48.980;8.138;2023-11-19T05:45:58;99932.11;;;12.16
34023;BMP280;20673;48.980;8.138;2023-11-19T05:48:26;99930.33;;;12.19
34023;BMP280;20673;48.980;8.138;2023-11-19T05:50:53;99927.83;;;12.19
34023;BMP280;20673;48.980;8.138;2023-11-19T05:53:19;99938.48;;;12.24
34023;BMP280;20673;48.980;8.138;2023-11-19T05:55:45;99935.42;;;12.21
34023;BMP280;20673;48.980;8.138;2023-11-19T05:58:26;99935.14;;;12.24
34023;BMP280;20673;48.980;8.138;2023-11-19T06:00:52;99928.48;;;12.24
34023;BMP280;20673;48.980;8.138;2023-11-19T06:03:18;99926.10;;;12.24
34023;BMP280;20673;48.980;8.138;2023-11-19T06:05:45;99921.70;;;12.28
34023;BMP280;20673;48.980;8.138;2023-11-19T06:08:12;99934.75;;;12.29
34023;BMP280;20673;48.980;8.138;2023-11-19T06:10:42;99916.62;;;12.31
34023;BMP280;20673;48.980;8.138;2023-11-19T06:13:09;99920.92;;;12.32
34023;BMP280;20673;48.980;8.138;2023-11-19T06:15:37;99924.09;;;12.32
34023;BMP280;20673;48.980;8.138;2023-11-19T06:18:03;99934.64;;;12.35
34023;BMP280;20673;48.980;8.138;2023-11-19T06:20:30;99940.26;;;12.35
34023;BMP280;20673;48.980;8.138;2023-11-19T06:22:57;99940.58;;;12.33
34023;BMP280;20673;48.980;8.138;2023-11-19T06:25:24;99938.64;;;12.38
34023;BMP280;20673;48.980;8.138;2023-11-19T06:27:51;99938.24;;;12.41
34023;BMP280;20673;48.980;8.138;2023-11-19T06:30:18;99943.50;;;12.42
34023;BMP280;20673;48.980;8.138;2023-11-19T06:32:45;99946.98;;;12.40
34023;BMP280;20673;48.980;8.138;2023-11-19T06:35:11;99937.93;;;12.37
34023;BMP280;20673;48.980;8.138;2023-11-19T06:37:41;99941.86;;;12.38
34023;BMP280;20673;48.980;8.138;2023-11-19T06:40:08;99931.20;;;12.40
34023;BMP280;20673;48.980;8.138;2023-11-19T06:42:35;99929.08;;;12.41
34023;BMP280;20673;48.980;8.138;2023-11-19T06:45:02;99931.62;;;12.45
34023;BMP280;20673;48.980;8.138;2023-11-19T06:47:30;99927.28;;;12.40
34023;BMP280;20673;48.980;8.138;2023-11-19T06:49:56;99923.91;;;12.41
34023;BMP280;20673;48.980;8.138;2023-11-19T06:52:22;99928.09;;;12.48
34023;BMP280;20673;48.980;8.138;2023-11-19T06:54:48;99929.28;;;12.53
34023;BMP280;20673;48.980;8.138;2023-11-19T06:57:14;99941.29;;;12.59
34023;BMP280;20673;48.980;8.138;2023-11-19T06:59:40;99942.76;;;12.60
34023;BMP280;20673;48.980;8.138;2023-11-19T07:02:06;99946.08;;;12.58
34023;BMP280;20673;48.980;8.138;2023-11-19T07:04:32;99955.75;;;12.58
34023;BMP280;20673;48.980;8.138;2023-11-19T07:07:02;99956.11;;;12.54
34023;BMP280;20673;48.980;8.138;2023-11-19T07:09:28;99962.86;;;12.53
34023;BMP280;20673;48.980;8.138;2023-11-19T07:11:54;99955.50;;;12.57
34023;BMP280;20673;48.980;8.138;2023-11-19T07:14:21;99958.08;;;12.57
34023;BMP280;20673;48.980;8.138;2023-11-19T07:16:49;99958.42;;;12.60
34023;BMP280;20673;48.980;8.138;2023-11-19T07:19:16;99949.47;;;12.62
34023;BMP280;20673;48.980;8.138;2023-11-19T07:21:42;99956.89;;;12.65
34023;BMP280;20673;48.980;8.138;2023-11-19T07:24:10;99955.51;;;12.69
34023;BMP280;20673;48.980;8.138;2023-11-19T07:26:43;99955.18;;;12.73
34023;BMP280;20673;48.980;8.138;2023-11-19T07:29:09;99966.76;;;12.85
34023;BMP280;20673;48.980;8.138;2023-11-19T07:31:36;99963.98;;;12.91
34023;BMP280;20673;48.980;8.138;2023-11-19T07:34:02;99967.49;;;12.96
34023;BMP280;20673;48.980;8.138;2023-11-19T07:36:29;99975.50;;;12.95
34023;BMP280;20673;48.980;8.138;2023-11-19T07:38:57;99984.09;;;12.98
34023;BMP280;20673;48.980;8.138;2023-11-19T07:41:23;99998.18;;;12.97
34023;BMP280;20673;48.980;8.138;2023-11-19T07:43:51;100003.60;;;12.95
34023;BMP280;20673;48.980;8.138;2023-11-19T07:46:18;100003.22;;;12.94
34023;BMP280;20673;48.980;8.138;2023-11-19T07:48:45;100002.22;;;12.96
34023;BMP280;20673;48.980;8.138;2023-11-19T07:51:14;99996.76;;;12.91
34023;BMP280;20673;48.980;8.138;2023-11-19T07:53:41;100000.93;;;12.91
34023;BMP280;20673;48.980;8.138;2023-11-19T07:56:08;99997.26;;;12.91
34023;BMP280;20673;48.980;8.138;2023-11-19T07:58:35;99995.21;;;12.90
34023;BMP280;20673;48.980;8.138;2023-11-19T08:01:01;99998.65;;;12.95
34023;BMP280;20673;48.980;8.138;2023-11-19T08:03:29;100000.97;;;12.98
34023;BMP280;20673;48.980;8.138;2023-11-19T08:05:56;100004.28;;;12.99
34023;BMP280;20673;48.980;8.138;2023-11-19T08:08:25;100016.33;;;13.02
34023;BMP280;20673;48.980;8.138;2023-11-19T08:10:52;100012.75;;;13.01
34023;BMP280;20673;48.980;8.138;2023-11-19T08:13:19;100010.83;;;13.02
34023;BMP280;20673;48.980;8.138;2023-11-19T08:15:46;100010.29;;;13.07
34023;BMP280;20673;48.980;8.138;2023-11-19T08:18:13;100001.21;;;13.07
34023;BMP280;20673;48.980;8.138;2023-11-19T08:20:39;100009.10;;;13.16
34023;BMP280;20673;48.980;8.138;2023-11-19T08:23:06;100017.95;;;13.21
34023;BMP280;20673;48.980;8.138;2023-11-19T08:25:32;100011.86;;;13.25
34023;BMP280;20673;48.980;8.138;2023-11-19T08:28:00;100016.70;;;13.29
34023;BMP280;20673;48.980;8.138;2023-11-19T08:30:26;100012.49;;;13.29
34023;BMP280;20673;48.980;8.138;2023-11-19T08:32:53;100008.65;;;13.30
34023;BMP280;20673;48.980;8.138;2023-11-19T08:35:19;100009.95;;;13.35
34023;BMP280;20673;48.980;8.138;2023-11-19T08:37:45;100009.20;;;13.34
34023;BMP280;20673;48.980;8.138;2023-11-19T08:40:12;100016.01;;;13.37
34023;BMP280;20673;48.980;8.138;2023-11-19T08:42:40;100029.40;;;13.34
34023;BMP280;20673;48.980;8.138;2023-11-19T08:45:08;100019.17;;;13.34
34023;BMP280;20673;48.980;8.138;2023-11-19T08:47:37;100026.81;;;13.35
34023;BMP280;20673;48.980;8.138;2023-11-19T08:50:04;100032.69;;;13.39
34023;BMP280;20673;48.980;8.138;2023-11-19T08:52:30;100030.03;;;13.45
34023;BMP280;20673;48.980;8.138;2023-11-19T08:54:57;100035.87;;;13.50
34023;BMP280;20673;48.980;8.138;2023-11-19T08:57:23;100038.92;;;13.49
34023;BMP280;20673;48.980;8.138;2023-11-19T08:59:49;100034.66;;;13.55
34023;BMP280;20673;48.980;8.138;2023-11-19T09:02:15;100037.71;;;13.55
34023;BMP280;20673;48.980;8.138;2023-11-19T09:04:42;100029.83;;;13.54
34023;BMP280;20673;48.980;8.138;2023-11-19T09:07:08;100030.03;;;13.57
34023;BMP280;20673;48.980;8.138;2023-11-19T09:09:37;100024.89;;;13.63
34023;BMP280;20673;48.980;8.138;2023-11-19T09:12:04;100028.40;;;13.65
34023;BMP280;20673;48.980;8.138;2023-11-19T09:14:30;100027.98;;;13.66
34023;BMP280;20673;48.980;8.138;2023-11-19T09:16:57;100030.57;;;13.70
34023;BMP280;20673;48.980;8.138;2023-11-19T09:19:24;100038.21;;;13.76
34023;BMP280;20673;48.980;8.138;2023-11-19T09:21:53;100035.36;;;13.81
34023;BMP280;20673;48.980;8.138;2023-11-19T09:24:21;100036.01;;;13.90
34023;BMP280;20673;48.980;8.138;2023-11-19T09:26:47;100045.68;;;13.96
34023;BMP280;20673;48.980;8.138;2023-11-19T09:29:14;100045.26;;;14.01
34023;BMP280;20673;48.980;8.138;2023-11-19T09:31:42;100038.53;;;14.03
34023;BMP280;20673;48.980;8.138;2023-11-19T09:34:08;100041.62;;;14.05
34023;BMP280;20673;48.980;8.138;2023-11-19T09:36:35;100051.14;;;14.10
34023;BMP280;20673;48.980;8.138;2023-11-19T09:39:01;100053.58;;;14.19
34023;BMP280;20673;48.980;8.138;2023-11-19T09:41:29;100059.81;;;14.34
34023;BMP280;20673;48.980;8.138;2023-11-19T09:43:56;100058.53;;;14.57
34023;BMP280;20673;48.980;8.138;2023-11-19T09:46:22;100046.86;;;14.70
34023;BMP280;20673;48.980;8.138;2023-11-19T09:48:54;100055.00;;;14.71
34023;BMP280;20673;48.980;8.138;2023-11-19T09:51:22;100054.79;;;14.72
34023;BMP280;20673;48.980;8.138;2023-11-19T09:53:48;100055.03;;;14.75
34023;BMP280;20673;48.980;8.138;2023-11-19T09:56:15;100043.69;;;14.74
34023;BMP280;20673;48.980;8.138;2023-11-19T09:58:44;100041.79;;;14.70
34023;BMP280;20673;48.980;8.138;2023-11-19T10:01:10;100040.40;;;14.72
34023;BMP280;20673;48.980;8.138;2023-11-19T10:03:39;100034.57;;;14.77
34023;BMP280;20673;48.980;8.138;2023-11-19T10:06:07;100027.25;;;14.77
34023;BMP280;20673;48.980;8.138;2023-11-19T10:08:37;100028.51;;;14.90
34023;BMP280;20673;48.980;8.138;2023-11-19T10:11:07;100016.72;;;15.08
34023;BMP280;20673;48.980;8.138;2023-11-19T10:13:35;100013.83;;;15.09
34023;BMP280;20673;48.980;8.138;2023-11-19T10:16:09;100011.84;;;15.40
34023;BMP280;20673;48.980;8.138;2023-11-19T10:18:42;100009.62;;;15.46
34023;BMP280;20673;48.980;8.138;2023-11-19T10:21:07;100008.20;;;15.45
34023;BMP280;20673;48.980;8.138;2023-11-19T10:23:52;100012.08;;;15.63
34023;BMP280;20673;48.980;8.138;2023-11-19T10:26:20;100008.58;;;15.74
34023;BMP280;20673;48.980;8.138;2023-11-19T10:28:48;100008.11;;;16.33
34023;BMP280;20673;48.980;8.138;2023-11-19T10:31:20;100007.36;;;16.54
34023;BMP280;20673;48.980;8.138;2023-11-19T10:33:48;100013.83;;;16.53
34023;BMP280;20673;48.980;8.138;2023-11-19T10:36:14;100019.27;;;16.21
34023;BMP280;20673;48.980;8.138;2023-11-19T10:38:56;100026.25;;;16.00
34023;BMP280;20673;48.980;8.138;2023-11-19T10:41:32;100025.64;;;15.95
34023;BMP280;20673;48.980;8.138;2023-11-19T10:43:59;100024.46;;;15.88
34023;BMP280;20673;48.980;8.138;2023-11-19T10:46:41;100015.85;;;15.84
34023;BMP280;20673;48.980;8.138;2023-11-19T10:49:09;100007.88;;;16.17
34023;BMP280;20673;48.980;8.138;2023-11-19T10:51:36;100007.59;;;16.34
34023;BMP280;20673;48.980;8.138;2023-11-19T10:54:06;100002.18;;;16.38
34023;BMP280;20673;48.980;8.138;2023-11-19T10:56:33;100009.56;;;16.27
34023;BMP280;20673;48.980;8.138;2023-11-19T10:59:01;100004.26;;;16.18
34023;BMP280;20673;48.980;8.138;2023-11-19T11:01:53;100008.51;;;16.01
34023;BMP280;20673;48.980;8.138;2023-11-19T11:04:13;99993.96;;;16.52
34023;BMP280;20673;48.980;8.138;2023-11-19T11:06:41;99990.42;;;16.54
34023;BMP280;20673;48.980;8.138;2023-11-19T11:09:10;100005.25;;;16.57
34023;BMP280;20673;48.980;8.138;2023-11-19T11:11:40;99996.81;;;16.83
34023;BMP280;20673;48.980;8.138;2023-11-19T11:14:12;100003.65;;;17.53
34023;BMP280;20673;48.980;8.138;2023-11-19T11:16:42;99996.70;;;17.74
34023;BMP280;20673;48.980;8.138;2023-11-19T11:19:10;99991.22;;;17.75
34023;BMP280;20673;48.980;8.138;2023-11-19T11:21:42;99994.78;;;17.80
34023;BMP280;20673;48.980;8.138;2023-11-19T11:27:28;99979.70;;;18.60
34023;BMP280;20673;48.980;8.138;2023-11-19T11:30:31;99981.25;;;19.17
34023;BMP280;20673;48.980;8.138;2023-11-19T11:33:37;99978.62;;;19.54
34023;BMP280;20673;48.980;8.138;2023-11-19T11:38:40;99977.17;;;18.27
34023;BMP280;20673;48.980;8.138;2023-11-19T11:41:22;99975.67;;;18.37
34023;BMP280;20673;48.980;8.138;2023-11-19T11:43:55;99965.72;;;18.84
34023;BMP280;20673;48.980;8.138;2023-11-19T11:49:10;99962.51;;;19.65
34023;BMP280;20673;48.980;8.138;2023-11-19T11:57:11;99950.44;;;19.41
34023;BMP280;20673;48.980;8.138;2023-11-19T11:59:47;99951.18;;;18.84
34023;BMP280;20673;48.980;8.138;2023-11-19T12:02:20;99951.71;;;18.77
34023;BMP280;20673;48.980;8.138;2023-11-19T12:04:52;99943.40;;;18.66
34023;BMP280;20673;48.980;8.138;2023-11-19T12:07:22;99959.59;;;18.17
34023;BMP280;20673;48.980;8.138;2023-11-19T12:10:07;99954.92;;;17.68
34023;BMP280;20673;48.980;8.138;2023-11-19T12:12:36;99945.78;;;17.53
34023;BMP280;20673;48.980;8.138;2023-11-19T12:15:08;99943.37;;;17.32
34023;BMP280;20673;48.980;8.138;2023-11-19T12:17:49;99941.04;;;17.35
34023;BMP280;20673;48.980;8.138;2023-11-19T12:20:20;99939.23;;;17.18
34023;BMP280;20673;48.980;8.138;2023-11-19T12:22:48;99933.40;;;17.09
34023;BMP280;20673;48.980;8.138;2023-11-19T12:25:16;99934.09;;;17.04
34023;BMP280;20673;48.980;8.138;2023-11-19T12:27:47;99942.11;;;16.90
34023;BMP280;20673;48.980;8.138;2023-11-19T12:30:24;99930.45;;;16.74
34023;BMP280;20673;48.980;8.138;2023-11-19T12:32:51;99935.20;;;16.64
34023;BMP280;20673;48.980;8.138;2023-11-19T12:35:19;99934.89;;;16.60
34023;BMP280;20673;48.980;8.138;2023-11-19T12:37:48;99934.72;;;16.51
34023;BMP280;20673;48.980;8.138;2023-11-19T12:40:19;99925.20;;;16.44
34023;BMP280;20673;48.980;8.138;2023-11-19T12:45:15;99918.24;;;16.32
34023;BMP280;20673;48.980;8.138;2023-11-19T12:47:43;99922.93;;;16.32
34023;BMP280;20673;48.980;8.138;2023-11-19T12:50:10;99924.24;;;16.41
34023;BMP280;20673;48.980;8.138;2023-11-19T12:52:37;99915.98;;;16.84
34023;BMP280;20673;48.980;8.138;2023-11-19T12:55:28;99921.83;;;17.24
34023;BMP280;20673;48.980;8.138;2023-11-19T12:57:41;99905.98;;;17.82
34023;BMP280;20673;48.980;8.138;2023-11-19T13:00:21;99894.37;;;18.46
34023;BMP280;20673;48.980;8.138;2023-11-19T13:02:55;99876.23;;;18.50
34023;BMP280;20673;48.980;8.138;2023-11-19T13:05:33;99880.45;;;18.57
34023;BMP280;20673;48.980;8.138;2023-11-19T13:08:08;99882.73;;;18.23
34023;BMP280;20673;48.980;8.138;2023-11-19T13:10:52;99890.14;;;17.94
34023;BMP280;20673;48.980;8.138;2023-11-19T13:13:20;99891.33;;;17.81
34023;BMP280;20673;48.980;8.138;2023-11-19T13:15:47;99886.56;;;17.56
34023;BMP280;20673;48.980;8.138;2023-11-19T13:18:16;99893.09;;;17.71
34023;BMP280;20673;48.980;8.138;2023-11-19T13:20:42;99889.05;;;18.10
34023;BMP280;20673;48.980;8.138;2023-11-19T13:23:09;99879.58;;;18.42
34023;BMP280;20673;48.980;8.138;2023-11-19T13:25:36;99873.08;;;18.73
34023;BMP280;20673;48.980;8.138;2023-11-19T13:28:02;99867.83;;;18.95
34023;BMP280;20673;48.980;8.138;2023-11-19T13:30:29;99877.39;;;19.12
34023;BMP280;20673;48.980;8.138;2023-11-19T13:32:55;99878.18;;;19.40
34023;BMP280;20673;48.980;8.138;2023-11-19T13:35:22;99877.64;;;18.88
34023;BMP280;20673;48.980;8.138;2023-11-19T13:37:48;99850.11;;;18.74
34023;BMP280;20673;48.980;8.138;2023-11-19T13:40:15;99855.55;;;18.23
34023;BMP280;20673;48.980;8.138;2023-11-19T13:42:42;99863.26;;;17.77
34023;BMP280;20673;48.980;8.138;2023-11-19T13:45:10;99871.34;;;17.25
34023;BMP280;20673;48.980;8.138;2023-11-19T13:47:39;99875.40;;;16.97
34023;BMP280;20673;48.980;8.138;2023-11-19T13:50:14;99870.58;;;16.70
34023;BMP280;20673;48.980;8.138;2023-11-19T13:52:42;99875.14;;;16.55
34023;BMP280;20673;48.980;8.138;2023-11-19T13:55:09;99880.08;;;16.48
34023;BMP280;20673;48.980;8.138;2023-11-19T13:57:37;99870.90;;;16.32
34023;BMP280;20673;48.980;8.138;2023-11-19T14:00:08;99859.93;;;16.25
34023;BMP280;20673;48.980;8.138;2023-11-19T14:02:40;99855.68;;;16.11
34023;BMP280;20673;48.980;8.138;2023-11-19T14:05:07;99856.30;;;16.11
34023;BMP280;20673;48.980;8.138;2023-11-19T14:07:33;99846.11;;;16.03
34023;BMP280;20673;48.980;8.138;2023-11-19T14:10:00;99843.04;;;15.94
34023;BMP280;20673;48.980;8.138;2023-11-19T14:12:26;99846.31;;;15.88
34023;BMP280;20673;48.980;8.138;2023-11-19T14:14:52;99833.33;;;15.84
34023;BMP280;20673;48.980;8.138;2023-11-19T14:17:19;99844.89;;;15.80
34023;BMP280;20673;48.980;8.138;2023-11-19T14:19:45;99847.04;;;15.79
34023;BMP280;20673;48.980;8.138;2023-11-19T14:22:11;99844.33;;;15.72
34023;BMP280;20673;48.980;8.138;2023-11-19T14:24:37;99856.14;;;15.68
34023;BMP280;20673;48.980;8.138;2023-11-19T14:27:05;99848.25;;;15.65